sensor_id;sensor_type;location;lat;lon;timestamp;P1;durP1;ratioP1;P2;durP2;ratioP2
77978;SDS011;67169;50.268;8.694;2023-07-20T00:00:40;2.08;;;1.75;;
77978;SDS011;67169;50.268;8.694;2023-07-20T00:03:10;5.85;;;1.55;;
77978;SDS011;67169;50.268;8.694;2023-07-20T00:05:41;4.57;;;1.83;;
77978;SDS011;67169;50.268;8.694;2023-07-20T00:08:08;6.50;;;1.63;;
77978;SDS011;67169;50.268;8.694;2023-07-20T00:10:35;3.08;;;1.50;;
77978;SDS011;67169;50.268;8.694;2023-07-20T00:13:03;2.08;;;1.30;;
77978;SDS011;67169;50.268;8.694;2023-07-20T00:15:29;2.35;;;1.00;;
77978;SDS011;67169;50.268;8.694;2023-07-20T00:17:56;2.63;;;1.23;;
77978;SDS011;67169;50.268;8.694;2023-07-20T00:20:23;3.20;;;1.60;;
77978;SDS011;67169;50.268;8.694;2023-07-20T00:22:51;3.78;;;1.70;;
77978;SDS011;67169;50.268;8.694;2023-07-20T00:25:17;5.00;;;1.38;;
77978;SDS011;67169;50.268;8.694;2023-07-20T00:27:44;3.58;;;1.40;;
77978;SDS011;67169;50.268;8.694;2023-07-20T00:30:12;3.58;;;1.50;;
77978;SDS011;67169;50.268;8.694;2023-07-20T00:32:39;7.80;;;1.83;;
77978;SDS011;67169;50.268;8.694;2023-07-20T00:35:06;5.28;;;1.50;;
77978;SDS011;67169;50.268;8.694;2023-07-20T00:37:33;2.60;;;1.25;;
77978;SDS011;67169;50.268;8.694;2023-07-20T00:39:59;1.98;;;1.35;;
77978;SDS011;67169;50.268;8.694;2023-07-20T00:42:26;3.03;;;1.25;;
77978;SDS011;67169;50.268;8.694;2023-07-20T00:44:52;2.00;;;1.00;;
77978;SDS011;67169;50.268;8.694;2023-07-20T00:47:20;2.88;;;1.40;;
77978;SDS011;67169;50.268;8.694;2023-07-20T00:49:47;2.88;;;1.75;;
77978;SDS011;67169;50.268;8.694;2023-07-20T00:52:14;2.90;;;1.45;;
77978;SDS011;67169;50.268;8.694;2023-07-20T00:54:41;6.15;;;2.00;;
77978;SDS011;67169;50.268;8.694;2023-07-20T00:57:08;2.08;;;1.42;;
77978;SDS011;67169;50.268;8.694;2023-07-20T00:59:35;3.65;;;1.80;;
77978;SDS011;67169;50.268;8.694;2023-07-20T01:02:02;3.08;;;1.38;;
77978;SDS011;67169;50.268;8.694;2023-07-20T01:04:30;3.00;;;1.60;;
77978;SDS011;67169;50.268;8.694;2023-07-20T01:06:58;3.20;;;1.67;;
77978;SDS011;67169;50.268;8.694;2023-07-20T01:09:34;4.13;;;2.17;;
77978;SDS011;67169;50.268;8.694;2023-07-20T01:12:08;4.82;;;1.77;;
77978;SDS011;67169;50.268;8.694;2023-07-20T01:14:40;3.17;;;1.70;;
77978;SDS011;67169;50.268;8.694;2023-07-20T01:17:06;3.85;;;1.70;;
77978;SDS011;67169;50.268;8.694;2023-07-20T01:19:34;6.57;;;1.77;;
77978;SDS011;67169;50.268;8.694;2023-07-20T01:22:02;5.57;;;1.65;;
77978;SDS011;67169;50.268;8.694;2023-07-20T01:24:39;4.22;;;2.10;;
77978;SDS011;67169;50.268;8.694;2023-07-20T01:30:25;3.25;;;2.55;;
77978;SDS011;67169;50.268;8.694;2023-07-20T01:33:12;3.33;;;1.50;;
77978;SDS011;67169;50.268;8.694;2023-07-20T01:35:41;2.63;;;1.40;;
77978;SDS011;67169;50.268;8.694;2023-07-20T01:38:11;4.50;;;1.58;;
77978;SDS011;67169;50.268;8.694;2023-07-20T01:40:39;3.55;;;1.63;;
77978;SDS011;67169;50.268;8.694;2023-07-20T01:43:07;3.95;;;2.50;;
77978;SDS011;67169;50.268;8.694;2023-07-20T01:45:33;3.95;;;1.70;;
77978;SDS011;67169;50.268;8.694;2023-07-20T01:48:00;6.68;;;2.22;;
77978;SDS011;67169;50.268;8.694;2023-07-20T01:50:28;4.43;;;2.40;;
77978;SDS011;67169;50.268;8.694;2023-07-20T01:52:54;3.88;;;1.98;;
77978;SDS011;67169;50.268;8.694;2023-07-20T01:55:21;5.25;;;1.73;;
77978;SDS011;67169;50.268;8.694;2023-07-20T01:57:48;7.85;;;2.20;;
77978;SDS011;67169;50.268;8.694;2023-07-20T02:00:14;2.78;;;1.90;;
77978;SDS011;67169;50.268;8.694;2023-07-20T02:02:41;3.75;;;1.80;;
77978;SDS011;67169;50.268;8.694;2023-07-20T02:05:08;4.47;;;1.70;;
77978;SDS011;67169;50.268;8.694;2023-07-20T02:07:36;3.40;;;1.88;;
77978;SDS011;67169;50.268;8.694;2023-07-20T02:10:03;2.42;;;1.42;;
77978;SDS011;67169;50.268;8.694;2023-07-20T02:12:30;4.63;;;2.00;;
77978;SDS011;67169;50.268;8.694;2023-07-20T02:14:57;4.93;;;2.13;;
77978;SDS011;67169;50.268;8.694;2023-07-20T02:17:23;5.20;;;2.28;;
77978;SDS011;67169;50.268;8.694;2023-07-20T02:19:50;4.18;;;2.33;;
77978;SDS011;67169;50.268;8.694;2023-07-20T02:22:18;6.72;;;2.72;;
77978;SDS011;67169;50.268;8.694;2023-07-20T02:24:46;4.57;;;2.40;;
77978;SDS011;67169;50.268;8.694;2023-07-20T02:27:14;4.40;;;2.47;;
77978;SDS011;67169;50.268;8.694;2023-07-20T02:29:41;4.65;;;2.03;;
77978;SDS011;67169;50.268;8.694;2023-07-20T02:32:08;3.38;;;1.85;;
77978;SDS011;67169;50.268;8.694;2023-07-20T02:34:35;2.83;;;2.40;;
77978;SDS011;67169;50.268;8.694;2023-07-20T02:37:02;3.17;;;1.85;;
77978;SDS011;67169;50.268;8.694;2023-07-20T02:39:29;3.85;;;2.00;;
77978;SDS011;67169;50.268;8.694;2023-07-20T02:41:57;5.35;;;1.98;;
77978;SDS011;67169;50.268;8.694;2023-07-20T02:44:24;3.67;;;1.60;;
77978;SDS011;67169;50.268;8.694;2023-07-20T02:46:50;3.78;;;2.17;;
77978;SDS011;67169;50.268;8.694;2023-07-20T02:49:17;3.40;;;1.95;;
77978;SDS011;67169;50.268;8.694;2023-07-20T02:51:43;5.38;;;2.30;;
77978;SDS011;67169;50.268;8.694;2023-07-20T02:54:11;5.18;;;2.28;;
77978;SDS011;67169;50.268;8.694;2023-07-20T02:56:37;4.20;;;2.67;;
77978;SDS011;67169;50.268;8.694;2023-07-20T02:59:05;4.28;;;2.00;;
77978;SDS011;67169;50.268;8.694;2023-07-20T03:01:32;4.82;;;2.17;;
77978;SDS011;67169;50.268;8.694;2023-07-20T03:03:59;5.20;;;1.92;;
77978;SDS011;67169;50.268;8.694;2023-07-20T03:06:25;5.85;;;2.38;;
77978;SDS011;67169;50.268;8.694;2023-07-20T03:08:52;5.95;;;2.40;;
77978;SDS011;67169;50.268;8.694;2023-07-20T03:11:19;4.07;;;2.25;;
77978;SDS011;67169;50.268;8.694;2023-07-20T03:13:46;4.25;;;2.38;;
77978;SDS011;67169;50.268;8.694;2023-07-20T03:16:16;4.35;;;2.17;;
77978;SDS011;67169;50.268;8.694;2023-07-20T03:18:44;4.10;;;2.80;;
77978;SDS011;67169;50.268;8.694;2023-07-20T03:21:11;6.20;;;2.75;;
77978;SDS011;67169;50.268;8.694;2023-07-20T03:23:38;6.80;;;2.17;;
77978;SDS011;67169;50.268;8.694;2023-07-20T03:26:05;4.85;;;2.03;;
77978;SDS011;67169;50.268;8.694;2023-07-20T03:28:33;4.45;;;2.15;;
77978;SDS011;67169;50.268;8.694;2023-07-20T03:30:59;4.80;;;2.05;;
77978;SDS011;67169;50.268;8.694;2023-07-20T03:33:28;2.67;;;1.73;;
77978;SDS011;67169;50.268;8.694;2023-07-20T03:35:55;5.15;;;2.00;;
77978;SDS011;67169;50.268;8.694;2023-07-20T03:38:24;4.53;;;2.30;;
77978;SDS011;67169;50.268;8.694;2023-07-20T03:40:52;3.30;;;1.75;;
77978;SDS011;67169;50.268;8.694;2023-07-20T03:43:20;3.97;;;1.67;;
77978;SDS011;67169;50.268;8.694;2023-07-20T03:45:47;2.55;;;1.45;;
77978;SDS011;67169;50.268;8.694;2023-07-20T03:48:14;5.15;;;2.05;;
77978;SDS011;67169;50.268;8.694;2023-07-20T03:50:43;5.78;;;1.67;;
77978;SDS011;67169;50.268;8.694;2023-07-20T03:53:10;3.88;;;1.88;;
77978;SDS011;67169;50.268;8.694;2023-07-20T03:55:37;6.10;;;2.17;;
77978;SDS011;67169;50.268;8.694;2023-07-20T03:58:03;4.85;;;1.90;;
77978;SDS011;67169;50.268;8.694;2023-07-20T04:00:30;3.30;;;1.50;;
77978;SDS011;67169;50.268;8.694;2023-07-20T04:02:57;2.33;;;2.20;;
77978;SDS011;67169;50.268;8.694;2023-07-20T04:05:24;2.33;;;1.52;;
77978;SDS011;67169;50.268;8.694;2023-07-20T04:07:52;4.55;;;2.03;;
77978;SDS011;67169;50.268;8.694;2023-07-20T04:10:18;5.53;;;1.80;;
77978;SDS011;67169;50.268;8.694;2023-07-20T04:12:45;2.55;;;1.50;;
77978;SDS011;67169;50.268;8.694;2023-07-20T04:15:12;1.50;;;1.40;;
77978;SDS011;67169;50.268;8.694;2023-07-20T04:17:39;2.53;;;1.73;;
77978;SDS011;67169;50.268;8.694;2023-07-20T04:20:07;3.72;;;1.50;;
77978;SDS011;67169;50.268;8.694;2023-07-20T04:22:34;3.20;;;1.60;;
77978;SDS011;67169;50.268;8.694;2023-07-20T04:25:02;4.18;;;1.80;;
77978;SDS011;67169;50.268;8.694;2023-07-20T04:27:29;1.58;;;1.33;;
77978;SDS011;67169;50.268;8.694;2023-07-20T04:29:57;1.92;;;1.10;;
77978;SDS011;67169;50.268;8.694;2023-07-20T04:32:24;3.50;;;1.55;;
77978;SDS011;67169;50.268;8.694;2023-07-20T04:34:50;1.77;;;1.30;;
77978;SDS011;67169;50.268;8.694;2023-07-20T04:37:17;1.77;;;1.52;;
77978;SDS011;67169;50.268;8.694;2023-07-20T04:39:43;2.53;;;1.25;;
77978;SDS011;67169;50.268;8.694;2023-07-20T04:42:11;1.40;;;1.20;;
77978;SDS011;67169;50.268;8.694;2023-07-20T04:44:38;1.75;;;1.55;;
77978;SDS011;67169;50.268;8.694;2023-07-20T04:47:04;2.78;;;1.52;;
77978;SDS011;67169;50.268;8.694;2023-07-20T04:49:34;3.20;;;1.50;;
77978;SDS011;67169;50.268;8.694;2023-07-20T04:52:01;3.25;;;1.80;;
77978;SDS011;67169;50.268;8.694;2023-07-20T04:54:28;2.67;;;1.88;;
77978;SDS011;67169;50.268;8.694;2023-07-20T04:56:55;3.40;;;1.70;;
77978;SDS011;67169;50.268;8.694;2023-07-20T04:59:23;2.25;;;1.45;;
77978;SDS011;67169;50.268;8.694;2023-07-20T05:01:49;4.93;;;1.80;;
77978;SDS011;67169;50.268;8.694;2023-07-20T05:04:16;2.20;;;1.42;;
77978;SDS011;67169;50.268;8.694;2023-07-20T05:06:43;1.70;;;1.42;;
77978;SDS011;67169;50.268;8.694;2023-07-20T05:09:09;3.22;;;1.60;;
77978;SDS011;67169;50.268;8.694;2023-07-20T05:11:36;1.92;;;1.73;;
77978;SDS011;67169;50.268;8.694;2023-07-20T05:14:02;2.25;;;1.40;;
77978;SDS011;67169;50.268;8.694;2023-07-20T05:16:30;2.85;;;1.70;;
77978;SDS011;67169;50.268;8.694;2023-07-20T05:18:57;1.40;;;1.30;;
77978;SDS011;67169;50.268;8.694;2023-07-20T05:21:23;1.30;;;1.00;;
77978;SDS011;67169;50.268;8.694;2023-07-20T05:23:50;4.38;;;1.40;;
77978;SDS011;67169;50.268;8.694;2023-07-20T05:26:16;2.40;;;2.15;;
77978;SDS011;67169;50.268;8.694;2023-07-20T05:28:43;2.20;;;1.48;;
77978;SDS011;67169;50.268;8.694;2023-07-20T05:31:09;1.80;;;1.23;;
77978;SDS011;67169;50.268;8.694;2023-07-20T05:33:37;2.35;;;1.95;;
77978;SDS011;67169;50.268;8.694;2023-07-20T05:36:04;5.47;;;2.28;;
77978;SDS011;67169;50.268;8.694;2023-07-20T05:38:31;6.20;;;1.85;;
77978;SDS011;67169;50.268;8.694;2023-07-20T05:40:59;3.55;;;1.80;;
77978;SDS011;67169;50.268;8.694;2023-07-20T05:43:27;2.10;;;1.90;;
77978;SDS011;67169;50.268;8.694;2023-07-20T05:45:55;1.98;;;1.65;;
77978;SDS011;67169;50.268;8.694;2023-07-20T05:48:23;4.10;;;2.30;;
77978;SDS011;67169;50.268;8.694;2023-07-20T05:50:51;4.63;;;2.05;;
77978;SDS011;67169;50.268;8.694;2023-07-20T05:53:17;5.07;;;1.75;;
77978;SDS011;67169;50.268;8.694;2023-07-20T05:55:44;3.38;;;1.95;;
77978;SDS011;67169;50.268;8.694;2023-07-20T05:58:10;2.78;;;1.75;;
77978;SDS011;67169;50.268;8.694;2023-07-20T06:00:37;2.58;;;1.73;;
77978;SDS011;67169;50.268;8.694;2023-07-20T06:03:04;2.95;;;1.60;;
77978;SDS011;67169;50.268;8.694;2023-07-20T06:05:31;2.35;;;1.60;;
77978;SDS011;67169;50.268;8.694;2023-07-20T06:07:59;5.18;;;1.65;;
77978;SDS011;67169;50.268;8.694;2023-07-20T06:10:26;3.25;;;2.00;;
77978;SDS011;67169;50.268;8.694;2023-07-20T06:12:52;2.78;;;1.60;;
77978;SDS011;67169;50.268;8.694;2023-07-20T06:17:50;3.83;;;1.83;;
77978;SDS011;67169;50.268;8.694;2023-07-20T06:20:17;5.47;;;1.60;;
77978;SDS011;67169;50.268;8.694;2023-07-20T06:22:44;5.25;;;1.50;;
77978;SDS011;67169;50.268;8.694;2023-07-20T06:25:12;2.75;;;1.52;;
77978;SDS011;67169;50.268;8.694;2023-07-20T06:27:39;1.50;;;1.40;;
77978;SDS011;67169;50.268;8.694;2023-07-20T06:30:06;3.08;;;1.95;;
77978;SDS011;67169;50.268;8.694;2023-07-20T06:32:33;1.85;;;1.40;;
77978;SDS011;67169;50.268;8.694;2023-07-20T06:34:59;4.15;;;1.75;;
77978;SDS011;67169;50.268;8.694;2023-07-20T06:37:26;1.80;;;1.30;;
77978;SDS011;67169;50.268;8.694;2023-07-20T06:39:52;2.35;;;1.58;;
77978;SDS011;67169;50.268;8.694;2023-07-20T06:42:20;2.60;;;1.60;;
77978;SDS011;67169;50.268;8.694;2023-07-20T06:44:47;2.63;;;1.50;;
77978;SDS011;67169;50.268;8.694;2023-07-20T06:47:13;2.70;;;1.30;;
77978;SDS011;67169;50.268;8.694;2023-07-20T06:49:40;1.67;;;1.27;;
77978;SDS011;67169;50.268;8.694;2023-07-20T06:52:07;3.13;;;1.42;;
77978;SDS011;67169;50.268;8.694;2023-07-20T06:54:33;1.80;;;1.23;;
77978;SDS011;67169;50.268;8.694;2023-07-20T06:57:00;7.47;;;2.03;;
77978;SDS011;67169;50.268;8.694;2023-07-20T06:59:28;2.90;;;1.90;;
77978;SDS011;67169;50.268;8.694;2023-07-20T07:01:55;4.47;;;2.13;;
77978;SDS011;67169;50.268;8.694;2023-07-20T07:04:21;2.28;;;1.83;;
77978;SDS011;67169;50.268;8.694;2023-07-20T07:06:48;3.63;;;2.25;;
77978;SDS011;67169;50.268;8.694;2023-07-20T07:09:15;8.75;;;2.25;;
77978;SDS011;67169;50.268;8.694;2023-07-20T07:11:41;3.08;;;1.90;;
77978;SDS011;67169;50.268;8.694;2023-07-20T07:14:08;2.85;;;2.08;;
77978;SDS011;67169;50.268;8.694;2023-07-20T07:16:36;4.75;;;2.00;;
77978;SDS011;67169;50.268;8.694;2023-07-20T07:19:02;4.05;;;2.10;;
77978;SDS011;67169;50.268;8.694;2023-07-20T07:21:30;5.85;;;2.42;;
77978;SDS011;67169;50.268;8.694;2023-07-20T07:23:57;3.05;;;2.17;;
77978;SDS011;67169;50.268;8.694;2023-07-20T07:26:24;5.50;;;2.45;;
77978;SDS011;67169;50.268;8.694;2023-07-20T07:28:51;4.53;;;2.20;;
77978;SDS011;67169;50.268;8.694;2023-07-20T07:31:17;5.05;;;1.98;;
77978;SDS011;67169;50.268;8.694;2023-07-20T07:33:46;2.75;;;2.10;;
77978;SDS011;67169;50.268;8.694;2023-07-20T07:36:12;3.65;;;2.13;;
77978;SDS011;67169;50.268;8.694;2023-07-20T07:38:39;2.00;;;1.60;;
77978;SDS011;67169;50.268;8.694;2023-07-20T07:41:06;4.00;;;2.20;;
77978;SDS011;67169;50.268;8.694;2023-07-20T07:43:32;2.33;;;1.77;;
77978;SDS011;67169;50.268;8.694;2023-07-20T07:46:00;3.67;;;2.22;;
77978;SDS011;67169;50.268;8.694;2023-07-20T07:48:26;3.85;;;1.60;;
77978;SDS011;67169;50.268;8.694;2023-07-20T07:50:54;6.47;;;2.22;;
77978;SDS011;67169;50.268;8.694;2023-07-20T07:53:21;2.13;;;1.90;;
77978;SDS011;67169;50.268;8.694;2023-07-20T07:55:50;4.90;;;2.25;;
77978;SDS011;67169;50.268;8.694;2023-07-20T07:58:17;7.45;;;2.15;;
77978;SDS011;67169;50.268;8.694;2023-07-20T08:00:43;2.25;;;1.60;;
77978;SDS011;67169;50.268;8.694;2023-07-20T08:03:10;3.50;;;2.20;;
77978;SDS011;67169;50.268;8.694;2023-07-20T08:05:36;4.25;;;1.90;;
77978;SDS011;67169;50.268;8.694;2023-07-20T08:08:05;4.05;;;1.88;;
77978;SDS011;67169;50.268;8.694;2023-07-20T08:10:31;2.65;;;1.45;;
77978;SDS011;67169;50.268;8.694;2023-07-20T08:12:58;4.22;;;2.17;;
77978;SDS011;67169;50.268;8.694;2023-07-20T08:15:24;2.45;;;1.90;;
77978;SDS011;67169;50.268;8.694;2023-07-20T08:17:51;2.45;;;1.90;;
77978;SDS011;67169;50.268;8.694;2023-07-20T08:22:48;4.07;;;1.75;;
77978;SDS011;67169;50.268;8.694;2023-07-20T08:25:16;2.72;;;1.77;;
77978;SDS011;67169;50.268;8.694;2023-07-20T08:27:43;2.92;;;2.10;;
77978;SDS011;67169;50.268;8.694;2023-07-20T08:30:11;6.45;;;2.00;;
77978;SDS011;67169;50.268;8.694;2023-07-20T08:32:38;3.33;;;1.92;;
77978;SDS011;67169;50.268;8.694;2023-07-20T08:35:05;3.17;;;1.63;;
77978;SDS011;67169;50.268;8.694;2023-07-20T08:37:32;3.28;;;2.00;;
77978;SDS011;67169;50.268;8.694;2023-07-20T08:39:58;2.13;;;1.63;;
77978;SDS011;67169;50.268;8.694;2023-07-20T08:42:27;7.28;;;2.28;;
77978;SDS011;67169;50.268;8.694;2023-07-20T08:44:54;3.15;;;1.95;;
77978;SDS011;67169;50.268;8.694;2023-07-20T08:47:22;2.40;;;1.98;;
77978;SDS011;67169;50.268;8.694;2023-07-20T08:49:49;4.15;;;2.13;;
77978;SDS011;67169;50.268;8.694;2023-07-20T08:52:16;3.70;;;2.15;;
77978;SDS011;67169;50.268;8.694;2023-07-20T08:54:43;2.63;;;1.80;;
77978;SDS011;67169;50.268;8.694;2023-07-20T08:57:09;2.00;;;1.40;;
77978;SDS011;67169;50.268;8.694;2023-07-20T08:59:41;2.58;;;1.70;;
77978;SDS011;67169;50.268;8.694;2023-07-20T09:02:08;3.15;;;1.88;;
77978;SDS011;67169;50.268;8.694;2023-07-20T09:04:42;2.75;;;1.75;;
77978;SDS011;67169;50.268;8.694;2023-07-20T09:07:10;5.03;;;1.70;;
77978;SDS011;67169;50.268;8.694;2023-07-20T09:09:39;3.17;;;1.60;;
77978;SDS011;67169;50.268;8.694;2023-07-20T09:12:08;4.65;;;2.20;;
77978;SDS011;67169;50.268;8.694;2023-07-20T09:14:41;4.10;;;1.70;;
77978;SDS011;67169;50.268;8.694;2023-07-20T09:17:12;4.07;;;1.88;;
77978;SDS011;67169;50.268;8.694;2023-07-20T09:19:39;2.13;;;1.92;;
77978;SDS011;67169;50.268;8.694;2023-07-20T09:22:12;3.33;;;1.50;;
77978;SDS011;67169;50.268;8.694;2023-07-20T09:24:38;3.63;;;1.90;;
77978;SDS011;67169;50.268;8.694;2023-07-20T09:27:06;2.70;;;1.50;;
77978;SDS011;67169;50.268;8.694;2023-07-20T09:29:34;4.72;;;1.20;;
77978;SDS011;67169;50.268;8.694;2023-07-20T09:32:02;6.00;;;1.65;;
77978;SDS011;67169;50.268;8.694;2023-07-20T09:34:30;2.60;;;2.03;;
77978;SDS011;67169;50.268;8.694;2023-07-20T09:36:57;4.30;;;1.83;;
77978;SDS011;67169;50.268;8.694;2023-07-20T09:39:25;3.30;;;1.45;;
77978;SDS011;67169;50.268;8.694;2023-07-20T09:41:51;3.40;;;1.52;;
77978;SDS011;67169;50.268;8.694;2023-07-20T09:44:19;1.80;;;1.20;;
77978;SDS011;67169;50.268;8.694;2023-07-20T09:46:46;3.17;;;1.10;;
77978;SDS011;67169;50.268;8.694;2023-07-20T09:49:15;2.70;;;1.50;;
77978;SDS011;67169;50.268;8.694;2023-07-20T09:51:43;3.53;;;1.30;;
77978;SDS011;67169;50.268;8.694;2023-07-20T09:56:37;3.05;;;1.50;;
77978;SDS011;67169;50.268;8.694;2023-07-20T09:59:04;5.25;;;1.80;;
77978;SDS011;67169;50.268;8.694;2023-07-20T10:01:31;3.67;;;1.80;;
77978;SDS011;67169;50.268;8.694;2023-07-20T10:03:59;2.67;;;1.42;;
77978;SDS011;67169;50.268;8.694;2023-07-20T10:06:31;4.13;;;1.38;;
77978;SDS011;67169;50.268;8.694;2023-07-20T10:09:00;4.18;;;1.75;;
77978;SDS011;67169;50.268;8.694;2023-07-20T10:11:29;2.88;;;1.55;;
77978;SDS011;67169;50.268;8.694;2023-07-20T10:13:58;2.30;;;1.45;;
77978;SDS011;67169;50.268;8.694;2023-07-20T10:16:26;2.33;;;1.48;;
77978;SDS011;67169;50.268;8.694;2023-07-20T10:18:58;2.33;;;1.60;;
77978;SDS011;67169;50.268;8.694;2023-07-20T10:21:30;2.03;;;1.60;;
77978;SDS011;67169;50.268;8.694;2023-07-20T10:23:59;6.65;;;1.80;;
77978;SDS011;67169;50.268;8.694;2023-07-20T10:26:27;4.28;;;1.55;;
77978;SDS011;67169;50.268;8.694;2023-07-20T10:28:54;4.18;;;1.80;;
77978;SDS011;67169;50.268;8.694;2023-07-20T10:33:49;4.40;;;1.30;;
77978;SDS011;67169;50.268;8.694;2023-07-20T10:36:21;4.20;;;1.10;;
77978;SDS011;67169;50.268;8.694;2023-07-20T10:38:53;3.67;;;1.30;;
77978;SDS011;67169;50.268;8.694;2023-07-20T10:41:22;2.03;;;1.42;;
77978;SDS011;67169;50.268;8.694;2023-07-20T10:43:57;2.53;;;1.42;;
77978;SDS011;67169;50.268;8.694;2023-07-20T10:46:35;2.10;;;1.30;;
77978;SDS011;67169;50.268;8.694;2023-07-20T10:49:09;4.22;;;1.45;;
77978;SDS011;67169;50.268;8.694;2023-07-20T10:51:39;5.72;;;2.03;;
77978;SDS011;67169;50.268;8.694;2023-07-20T10:54:08;4.50;;;1.20;;
77978;SDS011;67169;50.268;8.694;2023-07-20T10:56:57;3.60;;;1.08;;
77978;SDS011;67169;50.268;8.694;2023-07-20T10:59:45;3.42;;;1.13;;
77978;SDS011;67169;50.268;8.694;2023-07-20T11:02:13;3.83;;;1.30;;
77978;SDS011;67169;50.268;8.694;2023-07-20T11:04:45;3.03;;;1.35;;
77978;SDS011;67169;50.268;8.694;2023-07-20T11:07:15;6.38;;;1.17;;
77978;SDS011;67169;50.268;8.694;2023-07-20T11:09:42;1.67;;;1.08;;
77978;SDS011;67169;50.268;8.694;2023-07-20T11:12:11;2.72;;;1.08;;
77978;SDS011;67169;50.268;8.694;2023-07-20T11:14:40;3.38;;;1.13;;
77978;SDS011;67169;50.268;8.694;2023-07-20T11:17:11;2.83;;;0.90;;
77978;SDS011;67169;50.268;8.694;2023-07-20T11:19:38;2.33;;;0.98;;
77978;SDS011;67169;50.268;8.694;2023-07-20T11:22:05;1.05;;;0.95;;
77978;SDS011;67169;50.268;8.694;2023-07-20T11:24:34;2.50;;;1.05;;
77978;SDS011;67169;50.268;8.694;2023-07-20T11:27:01;0.75;;;0.70;;
77978;SDS011;67169;50.268;8.694;2023-07-20T11:29:29;2.72;;;1.00;;
77978;SDS011;67169;50.268;8.694;2023-07-20T11:31:56;1.63;;;0.90;;
77978;SDS011;67169;50.268;8.694;2023-07-20T11:34:24;7.00;;;1.05;;
77978;SDS011;67169;50.268;8.694;2023-07-20T11:36:52;6.30;;;1.60;;
77978;SDS011;67169;50.268;8.694;2023-07-20T11:39:21;3.80;;;0.98;;
77978;SDS011;67169;50.268;8.694;2023-07-20T11:41:51;3.90;;;0.88;;
77978;SDS011;67169;50.268;8.694;2023-07-20T11:44:19;2.45;;;0.95;;
77978;SDS011;67169;50.268;8.694;2023-07-20T11:47:00;3.67;;;0.80;;
77978;SDS011;67169;50.268;8.694;2023-07-20T11:49:29;1.48;;;0.70;;
77978;SDS011;67169;50.268;8.694;2023-07-20T11:54:23;1.48;;;0.70;;
77978;SDS011;67169;50.268;8.694;2023-07-20T11:56:53;1.35;;;0.73;;
77978;SDS011;67169;50.268;8.694;2023-07-20T11:59:20;1.95;;;0.73;;
77978;SDS011;67169;50.268;8.694;2023-07-20T12:01:46;1.77;;;0.70;;
77978;SDS011;67169;50.268;8.694;2023-07-20T12:04:14;0.80;;;0.70;;
77978;SDS011;67169;50.268;8.694;2023-07-20T12:06:41;1.20;;;1.00;;
77978;SDS011;67169;50.268;8.694;2023-07-20T12:09:12;1.17;;;0.60;;
77978;SDS011;67169;50.268;8.694;2023-07-20T12:11:42;1.63;;;0.70;;
77978;SDS011;67169;50.268;8.694;2023-07-20T12:14:10;2.88;;;1.35;;
77978;SDS011;67169;50.268;8.694;2023-07-20T12:16:37;1.13;;;0.80;;
77978;SDS011;67169;50.268;8.694;2023-07-20T12:19:04;3.15;;;0.70;;
77978;SDS011;67169;50.268;8.694;2023-07-20T12:21:35;1.20;;;0.70;;
77978;SDS011;67169;50.268;8.694;2023-07-20T12:24:03;1.27;;;0.60;;
77978;SDS011;67169;50.268;8.694;2023-07-20T12:26:31;2.00;;;0.55;;
77978;SDS011;67169;50.268;8.694;2023-07-20T12:28:58;0.93;;;0.50;;
77978;SDS011;67169;50.268;8.694;2023-07-20T12:31:25;1.10;;;0.55;;
77978;SDS011;67169;50.268;8.694;2023-07-20T12:33:53;2.15;;;0.70;;
77978;SDS011;67169;50.268;8.694;2023-07-20T12:36:21;1.77;;;0.40;;
77978;SDS011;67169;50.268;8.694;2023-07-20T12:38:49;2.20;;;0.65;;
77978;SDS011;67169;50.268;8.694;2023-07-20T12:41:16;0.63;;;0.40;;
77978;SDS011;67169;50.268;8.694;2023-07-20T12:43:42;2.15;;;0.47;;
77978;SDS011;67169;50.268;8.694;2023-07-20T12:46:10;2.50;;;0.60;;
77978;SDS011;67169;50.268;8.694;2023-07-20T12:48:38;0.88;;;0.55;;
77978;SDS011;67169;50.268;8.694;2023-07-20T12:51:07;1.55;;;0.55;;
77978;SDS011;67169;50.268;8.694;2023-07-20T12:53:34;1.73;;;0.75;;
77978;SDS011;67169;50.268;8.694;2023-07-20T12:56:02;0.40;;;0.40;;
77978;SDS011;67169;50.268;8.694;2023-07-20T12:58:29;1.60;;;0.63;;
77978;SDS011;67169;50.268;8.694;2023-07-20T13:00:56;2.97;;;1.77;;
77978;SDS011;67169;50.268;8.694;2023-07-20T13:03:22;0.55;;;0.55;;
77978;SDS011;67169;50.268;8.694;2023-07-20T13:05:49;1.80;;;1.67;;
77978;SDS011;67169;50.268;8.694;2023-07-20T13:08:16;1.23;;;0.65;;
77978;SDS011;67169;50.268;8.694;2023-07-20T13:10:43;1.00;;;0.80;;
77978;SDS011;67169;50.268;8.694;2023-07-20T13:13:11;1.83;;;0.70;;
77978;SDS011;67169;50.268;8.694;2023-07-20T13:15:41;3.20;;;1.10;;
77978;SDS011;67169;50.268;8.694;2023-07-20T13:18:08;5.07;;;0.80;;
77978;SDS011;67169;50.268;8.694;2023-07-20T13:20:35;6.07;;;0.80;;
77978;SDS011;67169;50.268;8.694;2023-07-20T13:23:02;0.50;;;0.50;;
77978;SDS011;67169;50.268;8.694;2023-07-20T13:25:28;2.50;;;0.80;;
77978;SDS011;67169;50.268;8.694;2023-07-20T13:27:55;3.42;;;0.70;;
77978;SDS011;67169;50.268;8.694;2023-07-20T13:30:23;1.58;;;0.70;;
77978;SDS011;67169;50.268;8.694;2023-07-20T13:32:49;1.08;;;0.52;;
77978;SDS011;67169;50.268;8.694;2023-07-20T13:35:16;0.70;;;0.47;;
77978;SDS011;67169;50.268;8.694;2023-07-20T13:37:42;0.70;;;0.57;;
77978;SDS011;67169;50.268;8.694;2023-07-20T13:40:09;1.92;;;0.60;;
77978;SDS011;67169;50.268;8.694;2023-07-20T13:42:38;0.88;;;0.60;;
77978;SDS011;67169;50.268;8.694;2023-07-20T13:45:05;0.68;;;0.47;;
77978;SDS011;67169;50.268;8.694;2023-07-20T13:47:34;1.35;;;0.57;;
77978;SDS011;67169;50.268;8.694;2023-07-20T13:50:01;2.25;;;0.60;;
77978;SDS011;67169;50.268;8.694;2023-07-20T13:52:27;1.02;;;0.50;;
77978;SDS011;67169;50.268;8.694;2023-07-20T13:54:54;1.15;;;0.60;;
77978;SDS011;67169;50.268;8.694;2023-07-20T13:57:20;2.92;;;0.80;;
77978;SDS011;67169;50.268;8.694;2023-07-20T13:59:47;8.32;;;1.15;;
77978;SDS011;67169;50.268;8.694;2023-07-20T14:02:13;1.38;;;0.70;;
77978;SDS011;67169;50.268;8.694;2023-07-20T14:04:42;1.00;;;0.63;;
77978;SDS011;67169;50.268;8.694;2023-07-20T14:07:08;0.75;;;0.63;;
77978;SDS011;67169;50.268;8.694;2023-07-20T14:09:36;1.10;;;0.80;;
77978;SDS011;67169;50.268;8.694;2023-07-20T14:12:03;1.67;;;0.70;;
77978;SDS011;67169;50.268;8.694;2023-07-20T14:14:30;2.38;;;0.60;;
77978;SDS011;67169;50.268;8.694;2023-07-20T14:16:56;3.95;;;0.80;;
77978;SDS011;67169;50.268;8.694;2023-07-20T14:19:23;3.15;;;0.50;;
77978;SDS011;67169;50.268;8.694;2023-07-20T14:21:51;1.10;;;0.70;;
77978;SDS011;67169;50.268;8.694;2023-07-20T14:24:17;1.52;;;0.70;;
77978;SDS011;67169;50.268;8.694;2023-07-20T14:26:44;1.58;;;0.80;;
77978;SDS011;67169;50.268;8.694;2023-07-20T14:29:12;2.58;;;0.70;;
77978;SDS011;67169;50.268;8.694;2023-07-20T14:31:39;2.72;;;0.70;;
77978;SDS011;67169;50.268;8.694;2023-07-20T14:34:05;0.65;;;0.60;;
77978;SDS011;67169;50.268;8.694;2023-07-20T14:36:32;1.88;;;0.68;;
77978;SDS011;67169;50.268;8.694;2023-07-20T14:39:00;0.80;;;0.50;;
77978;SDS011;67169;50.268;8.694;2023-07-20T14:41:26;1.40;;;0.88;;
77978;SDS011;67169;50.268;8.694;2023-07-20T14:43:53;4.18;;;1.17;;
77978;SDS011;67169;50.268;8.694;2023-07-20T14:46:20;2.00;;;0.52;;
77978;SDS011;67169;50.268;8.694;2023-07-20T14:48:47;1.02;;;0.80;;
77978;SDS011;67169;50.268;8.694;2023-07-20T14:51:13;0.95;;;0.73;;
77978;SDS011;67169;50.268;8.694;2023-07-20T14:53:40;0.70;;;0.60;;
77978;SDS011;67169;50.268;8.694;2023-07-20T14:56:08;1.17;;;0.70;;
77978;SDS011;67169;50.268;8.694;2023-07-20T14:58:35;2.67;;;0.80;;
77978;SDS011;67169;50.268;8.694;2023-07-20T15:01:02;0.98;;;0.57;;
77978;SDS011;67169;50.268;8.694;2023-07-20T15:03:29;1.30;;;0.70;;
77978;SDS011;67169;50.268;8.694;2023-07-20T15:05:56;0.77;;;0.52;;